LYBE/BEG METAR and TAF weather

Enter ICAO airport designator
Station Type Date Time Source
LYBE METAR 2020/08/06 00:30 UTC NOAA

LYBE 060030Z 27003KT 5000 BR BKN017 19/19 Q1015 NOSIG


Station Type Date Time Source
LYBE Decoded METAR 2020/08/06 00:30 UTC NOAA

Beograd / Surcin, Serbia and Montenegro (LYBE) 44-49N 020-17E 99M
Aug 05, 2020 - 08:30 PM EDT / 2020.08.06 0030 UTC
Wind: from the W (270 degrees) at 3 MPH (3 KT):0
Visibility: 3 mile(s):0
Sky conditions: mostly cloudy
Weather: mist
Temperature: 66 F (19 C)
Dew Point: 66 F (19 C)
Relative Humidity: 100%
Pressure (altimeter): 29.97 in. Hg (1015 hPa)
ob: LYBE 060030Z 27003KT 5000 BR BKN017 19/19 Q1015 NOSIG
cycle: 0

Station Type Date Time Source
LYBE TAF 2020/08/05 18:21 UTC NOAA

TAF LYBE 051700Z 0518/0618 34006KT 9999 BKN010 BKN033 TX26/0613Z TN18/0603Z
BECMG 0522/0524 5000 BR BKN005 BKN030
TEMPO 0603/0606 1200 OVC003
BECMG 0606/0608 8000 NSW SCT015 BKN030
BECMG 0609/0611 06010KT

Example: see airport list